Archival Weather

Doha Intl Airport

Doha Intl Airport, Qatar (OTBD)

Report from: Thursday, September 21, 2023 5:30 AM +03
Current time: Saturday, March 2, 2024 12:39 PM +03

Current weather – Weather history – Daily summaries
Weather forecast

Temperature31.0°C (87.8°F)
Heat index35.5°C (95.9°F)
Dew point23.0°C (73.4°F)
Winds 4 kts (2.1 m/s, 4.6 mph) Vrb
Winds variableWinds variable from West-Northwest (290°) to North (350°)
Clouds Sky clear
Altimeter29.68 in.Hg (1005 mB)
Relative humidity63 %
Density altitude2,484 ft. (757 m)
Remarks Ceiling and visibility OK
No significant changes expected in the next two hours
Flight conditions Visual Meteorological Conditions
Raw dataOTBD 210230Z 33004KT 290V350 CAVOK 31/23 Q1005 NOSIG
An error has occurred. This application may no longer respond until reloaded. Reload 🗙